LICA

Lamezia Terme Airport

Lamezia Terme, Italy
TAF LICA 231100Z 2312/2412 27014KT 9999 SCT020 TEMPO 2312/2320 4000 TSRA
Issued Valid From Valid To
Jul-23 @ 11:00 UTC
(3 hours ago)
Jul-23 @ 12:00 UTC
(2 hours ago)
Jul-24 @ 12:00 UTC
(in 22 hours)
Jul-23 @ 12:00 to Jul-24 @ 12:00
TAF LICA 231100Z 2312/2412 27014KT 9999 SCT020
Wind Visibility Clouds
270° at 14 knots 10,000+ meters
  • Scattered at 2,000' AGL
Temporary Jul-23 @ 12:00 to Jul-23 @ 20:00
TEMPO 2312/2320 4000 TSRA
Visibility Conditions
4,007 meters
  • Thunderstorm
  • Rain
TAF LICA 231100Z 2312/2412 27014KT 9999 SCT020 TEMPO 2312/2320 4000 TSRA
Issued Jul-23 @ 11:00 UTC
(3 hours ago)
Valid From Jul-23 @ 12:00 UTC
(2 hours ago)
Valid To Jul-24 @ 12:00 UTC
(in 22 hours)
Jul-23 @ 12:00 - Jul-24 @ 12:00
Wind Visibility
270° at 14 knots 10,000+ meters
Clouds
  • Scattered at 2,000' AGL
Temporary Jul-23 @ 12:00 - Jul-23 @ 20:00
Conditions
  • Thunderstorm
  • Rain